Time;durP1;ratioP1;P1;durP2;ratioP2;P2;SDS_P1;SDS_P2;PMS_P1;PMS_P2;Temp;Humidity;BMP_temperature;BMP_pressure;BME280_temperature;BME280_humidity;BME280_pressure;Samples;Min_cycle;Max_cycle;Signal;HPM_P1;HPM_P2
2021/07/18 00:01:31;;;;;;;7.80;2.13;;;;;;;18.38;100.00;101254.28;5143396;28;20102;-78
2021/07/18 00:04:02;;;;;;;7.35;2.20;;;;;;;18.31;100.00;101252.94;5143947;28;20325;-77
2021/07/18 00:06:32;;;;;;;7.95;2.05;;;;;;;18.13;100.00;101253.91;5144094;28;20271;-78
2021/07/18 00:09:05;;;;;;;5.88;2.22;;;;;;;18.08;100.00;101261.25;5144128;28;20050;-76
2021/07/18 00:11:35;;;;;;;7.32;2.15;;;;;;;17.98;100.00;101260.91;5145263;28;20508;-76
2021/07/18 00:14:08;;;;;;;6.82;2.20;;;;;;;17.93;100.00;101259.44;5148613;28;20036;-76
2021/07/18 00:16:39;;;;;;;7.53;2.28;;;;;;;17.99;100.00;101261.78;5143212;28;20057;-77
2021/07/18 00:19:09;;;;;;;6.82;2.25;;;;;;;18.02;100.00;101258.97;5143966;28;20069;-78
2021/07/18 00:21:40;;;;;;;6.00;2.22;;;;;;;17.90;100.00;101263.13;5144065;28;20449;-77
2021/07/18 00:24:10;;;;;;;9.85;2.53;;;;;;;17.87;100.00;101262.44;5143545;28;20084;-77
2021/07/18 00:26:40;;;;;;;8.87;2.27;;;;;;;17.91;100.00;101263.97;5141778;28;20026;-77
2021/07/18 00:29:11;;;;;;;5.13;1.98;;;;;;;17.90;100.00;101263.13;5143453;28;20274;-78
2021/07/18 00:31:41;;;;;;;4.78;2.20;;;;;;;17.82;100.00;101261.84;5141461;28;20513;-78
2021/07/18 00:34:12;;;;;;;5.45;2.30;;;;;;;17.76;100.00;101265.66;5143900;28;20381;-77
2021/07/18 00:36:42;;;;;;;8.30;2.50;;;;;;;17.64;100.00;101268.97;5142145;28;20110;-76
2021/07/18 00:39:15;;;;;;;6.55;2.20;;;;;;;17.59;100.00;101262.22;5146380;28;20049;-76
2021/07/18 00:41:45;;;;;;;8.45;2.55;;;;;;;17.44;100.00;101261.25;5146871;28;20382;-78
2021/07/18 00:44:15;;;;;;;8.48;2.95;;;;;;;17.45;100.00;101267.41;5149094;28;20030;-77
2021/07/18 00:46:46;;;;;;;10.07;2.70;;;;;;;17.63;100.00;101263.78;5146538;28;20031;-78
2021/07/18 00:49:16;;;;;;;7.23;2.50;;;;;;;17.70;100.00;101257.22;5143893;28;20170;-78
2021/07/18 00:51:47;;;;;;;6.05;2.40;;;;;;;17.72;100.00;101265.91;5136878;28;20453;-78
2021/07/18 00:54:18;;;;;;;8.75;2.50;;;;;;;17.60;100.00;101263.91;5139250;28;20584;-77
2021/07/18 00:56:48;;;;;;;8.15;2.80;;;;;;;17.51;100.00;101267.06;5158611;28;20381;-77
2021/07/18 00:59:18;;;;;;;6.78;2.47;;;;;;;17.64;100.00;101266.31;5142695;28;20392;-77
2021/07/18 01:01:49;;;;;;;7.93;2.70;;;;;;;17.70;100.00;101267.78;5141752;28;20038;-77
2021/07/18 01:04:20;;;;;;;6.55;2.40;;;;;;;17.85;100.00;101261.69;5143084;28;20030;-78
2021/07/18 01:06:50;;;;;;;10.32;2.90;;;;;;;17.80;100.00;101261.09;5142907;28;20267;-76
2021/07/18 01:09:21;;;;;;;7.53;2.70;;;;;;;17.54;100.00;101270.41;5145027;28;20110;-77
2021/07/18 01:11:52;;;;;;;9.52;2.72;;;;;;;17.71;100.00;101266.84;5145592;28;20392;-77
2021/07/18 01:14:22;;;;;;;7.85;2.97;;;;;;;17.49;100.00;101268.94;5149041;28;20058;-77
2021/07/18 01:16:53;;;;;;;10.52;2.92;;;;;;;17.51;100.00;101275.84;5149666;28;20118;-77
2021/07/18 01:19:24;;;;;;;8.75;2.38;;;;;;;17.84;100.00;101278.47;5142970;28;20114;-78
2021/07/18 01:22:00;;;;;;;8.82;2.85;;;;;;;17.75;100.00;101273.69;5143255;28;20038;-78
2021/07/18 01:24:31;;;;;;;8.13;2.70;;;;;;;17.75;100.00;101268.38;5144006;28;20027;-78
2021/07/18 01:27:04;;;;;;;8.82;3.17;;;;;;;17.77;100.00;101271.81;5141469;28;20030;-76
2021/07/18 01:29:35;;;;;;;6.30;2.25;;;;;;;17.83;100.00;101261.75;5143579;28;20053;-75
2021/07/18 01:32:05;;;;;;;8.50;3.20;;;;;;;17.69;100.00;101263.44;5143609;28;20094;-76
2021/07/18 01:34:36;;;;;;;7.35;2.75;;;;;;;17.70;100.00;101270.44;5144299;28;20054;-77
2021/07/18 01:37:06;;;;;;;7.60;3.00;;;;;;;17.74;100.00;101262.25;5143124;28;20023;-78
2021/07/18 01:39:36;;;;;;;8.60;2.70;;;;;;;17.81;100.00;101273.38;5149246;28;20041;-78
2021/07/18 01:42:06;;;;;;;12.30;3.10;;;;;;;17.85;100.00;101264.31;5147311;28;20027;-78
2021/07/18 01:44:37;;;;;;;9.77;3.30;;;;;;;17.93;100.00;101262.97;5152408;28;20130;-78
2021/07/18 01:47:07;;;;;;;9.15;3.10;;;;;;;17.92;100.00;101261.25;5149268;28;20098;-78
2021/07/18 01:49:39;;;;;;;12.48;3.83;;;;;;;17.95;100.00;101265.50;5162024;28;20117;-77
2021/07/18 01:52:10;;;;;;;11.25;3.65;;;;;;;17.91;100.00;101267.50;5141919;28;20492;-76
2021/07/18 01:54:40;;;;;;;9.70;3.72;;;;;;;18.06;100.00;101271.94;5147300;28;20043;-77
2021/07/18 01:57:16;;;;;;;14.85;4.40;;;;;;;17.97;100.00;101266.31;5147039;28;20046;-78
2021/07/18 01:59:46;;;;;;;13.05;4.25;;;;;;;18.00;100.00;101266.13;5146942;28;20033;-76
2021/07/18 02:02:17;;;;;;;12.75;4.47;;;;;;;18.17;100.00;101266.06;5144992;28;20102;-78
2021/07/18 02:04:51;;;;;;;10.52;4.03;;;;;;;18.10;100.00;101262.91;5146037;28;20062;-78
2021/07/18 02:07:21;;;;;;;12.32;4.40;;;;;;;18.12;100.00;101262.78;5146807;28;20059;-78
2021/07/18 02:09:53;;;;;;;11.38;4.50;;;;;;;18.28;100.00;101263.69;5150491;28;20035;-78
2021/07/18 02:12:23;;;;;;;13.10;4.93;;;;;;;18.12;100.00;101268.09;5148602;28;20033;-78
2021/07/18 02:14:54;;;;;;;14.35;4.85;;;;;;;18.16;100.00;101274.94;5152213;28;20031;-78
2021/07/18 02:17:24;;;;;;;13.95;5.25;;;;;;;18.14;100.00;101269.72;5147069;28;20018;-77
2021/07/18 02:19:54;;;;;;;13.07;5.95;;;;;;;18.15;100.00;101268.78;5142509;28;20444;-77
2021/07/18 02:22:40;;;;;;;12.38;5.35;;;;;;;18.13;100.00;101269.78;5142466;28;20041;-77
2021/07/18 02:25:12;;;;;;;13.82;5.85;;;;;;;17.81;100.00;101273.38;5138934;28;20095;-77
2021/07/18 02:27:43;;;;;;;10.45;5.50;;;;;;;18.01;100.00;101266.03;5141374;28;20035;-77
2021/07/18 02:30:19;;;;;;;14.82;5.78;;;;;;;18.13;100.00;101261.84;5141284;28;20374;-77
2021/07/18 02:32:50;;;;;;;14.30;5.55;;;;;;;18.08;100.00;101271.84;5142494;28;20497;-77
2021/07/18 02:35:22;;;;;;;15.25;6.13;;;;;;;18.12;100.00;101263.66;5142468;28;20485;-77
2021/07/18 02:37:52;;;;;;;14.30;6.03;;;;;;;18.22;100.00;101259.56;5142691;28;20034;-77
2021/07/18 02:40:23;;;;;;;13.88;6.00;;;;;;;18.03;100.00;101258.84;5149664;28;20162;-77
2021/07/18 02:42:54;;;;;;;18.95;6.22;;;;;;;18.02;100.00;101261.59;5142788;28;20035;-77
2021/07/18 02:45:25;;;;;;;12.88;6.03;;;;;;;18.04;100.00;101257.09;5148982;28;20495;-77
2021/07/18 02:47:55;;;;;;;13.10;5.88;;;;;;;18.09;100.00;101255.03;5141849;28;20038;-77
2021/07/18 02:50:27;;;;;;;14.95;5.80;;;;;;;18.13;100.00;101259.19;5142640;28;20500;-77
2021/07/18 02:52:57;;;;;;;14.75;5.53;;;;;;;18.12;100.00;101262.78;5141962;28;20058;-77
2021/07/18 02:55:28;;;;;;;12.67;5.37;;;;;;;18.19;100.00;101256.22;5142051;28;20066;-77
2021/07/18 02:57:58;;;;;;;14.00;5.53;;;;;;;18.11;100.00;101245.22;5142384;28;20785;-77
2021/07/18 03:00:28;;;;;;;13.02;5.65;;;;;;;18.12;100.00;101247.78;5140392;28;20400;-77
2021/07/18 03:02:59;;;;;;;17.13;5.43;;;;;;;18.10;100.00;101247.03;5139044;28;20037;-77
2021/07/18 03:05:29;;;;;;;12.85;5.53;;;;;;;17.98;100.00;101245.03;5144933;28;20023;-77
2021/07/18 03:07:59;;;;;;;11.63;5.72;;;;;;;18.02;100.00;101243.94;5140940;28;20027;-77
2021/07/18 03:10:30;;;;;;;10.77;4.80;;;;;;;18.11;100.00;101245.22;5148697;28;20026;-78
2021/07/18 03:13:00;;;;;;;10.93;5.07;;;;;;;18.14;100.00;101242.41;5144147;28;20101;-77
2021/07/18 03:15:31;;;;;;;12.37;5.53;;;;;;;18.18;100.00;101244.78;5153432;28;20341;-77
2021/07/18 03:18:02;;;;;;;14.95;5.47;;;;;;;18.17;100.00;101251.00;5147917;28;20282;-77
2021/07/18 03:20:33;;;;;;;11.15;5.28;;;;;;;18.15;100.00;101252.06;5147303;28;20377;-77
2021/07/18 03:23:04;;;;;;;12.68;5.22;;;;;;;18.23;100.00;101247.19;5149900;28;20110;-77
2021/07/18 03:25:34;;;;;;;12.80;5.35;;;;;;;18.38;100.00;101249.00;5149609;28;20638;-77
2021/07/18 03:28:04;;;;;;;12.85;5.15;;;;;;;18.34;100.00;101242.19;5146928;28;20031;-77
2021/07/18 03:30:35;;;;;;;12.68;5.53;;;;;;;18.33;100.00;101253.72;5140451;28;20113;-77
2021/07/18 03:33:05;;;;;;;11.93;4.95;;;;;;;18.40;100.00;101249.75;5140679;28;20018;-77
2021/07/18 03:35:35;;;;;;;11.52;5.00;;;;;;;18.28;100.00;101259.25;5140962;28;20125;-77
2021/07/18 03:38:06;;;;;;;10.93;4.60;;;;;;;18.31;100.00;101259.06;5143676;28;20026;-77
2021/07/18 03:40:36;;;;;;;11.55;5.43;;;;;;;18.21;100.00;101249.91;5147055;28;20113;-78
2021/07/18 03:43:07;;;;;;;14.77;5.65;;;;;;;18.25;100.00;101253.22;5144333;28;20112;-77
2021/07/18 03:45:37;;;;;;;13.25;5.72;;;;;;;18.15;100.00;101252.91;5147193;28;20033;-77
2021/07/18 03:48:08;;;;;;;14.45;5.25;;;;;;;18.20;100.00;101250.84;5140861;28;20382;-77
2021/07/18 03:50:38;;;;;;;15.00;5.18;;;;;;;18.40;100.00;101255.06;5142037;28;20145;-77
2021/07/18 03:53:08;;;;;;;11.45;5.00;;;;;;;18.27;100.00;101252.25;5141666;28;20492;-77
2021/07/18 03:55:38;;;;;;;11.38;5.25;;;;;;;18.46;100.00;101247.63;5141249;28;20035;-77
2021/07/18 03:58:09;;;;;;;12.00;4.87;;;;;;;18.51;100.00;101248.19;5141559;28;20112;-77
2021/07/18 04:00:39;;;;;;;8.25;4.35;;;;;;;18.47;100.00;101253.75;5140845;28;20289;-77
2021/07/18 04:03:10;;;;;;;15.00;4.90;;;;;;;18.43;100.00;101252.22;5141053;28;20433;-77
2021/07/18 04:05:40;;;;;;;9.63;4.32;;;;;;;18.41;100.00;101249.69;5140953;28;20023;-77
2021/07/18 04:08:10;;;;;;;11.20;4.40;;;;;;;18.41;100.00;101260.28;5140917;28;20022;-77
2021/07/18 04:10:42;;;;;;;12.10;5.00;;;;;;;18.50;100.00;101261.53;5145038;28;20030;-77
2021/07/18 04:13:13;;;;;;;14.18;5.05;;;;;;;18.64;100.00;101261.59;5143046;28;20034;-77
2021/07/18 04:15:43;;;;;;;11.60;4.90;;;;;;;18.46;100.00;101262.63;5146453;28;20042;-77
2021/07/18 04:18:13;;;;;;;14.07;4.50;;;;;;;18.46;100.00;101265.28;5140465;28;20097;-77
2021/07/18 04:20:44;;;;;;;13.68;4.82;;;;;;;18.52;100.00;101257.84;5139173;28;20531;-77
2021/07/18 04:23:14;;;;;;;9.47;4.53;;;;;;;18.39;100.00;101258.66;5140487;28;20066;-77
2021/07/18 04:25:45;;;;;;;12.40;4.80;;;;;;;18.52;100.00;101259.66;5140503;28;20290;-77
2021/07/18 04:28:16;;;;;;;10.35;4.78;;;;;;;18.58;100.00;101261.94;5140625;28;20459;-77
2021/07/18 04:30:46;;;;;;;11.80;4.65;;;;;;;18.36;100.00;101259.66;5139080;28;20121;-77
2021/07/18 04:33:16;;;;;;;11.73;4.53;;;;;;;18.53;100.00;101270.16;5140167;28;20023;-77
2021/07/18 04:35:47;;;;;;;11.43;4.43;;;;;;;18.62;100.00;101274.06;5140695;28;20775;-77
2021/07/18 04:38:17;;;;;;;11.05;4.45;;;;;;;18.57;100.00;101261.13;5140036;28;20030;-77
2021/07/18 04:40:47;;;;;;;11.32;4.53;;;;;;;18.39;100.00;101272.75;5145482;28;20030;-77
2021/07/18 04:43:17;;;;;;;12.02;4.00;;;;;;;18.55;100.00;101278.84;5143200;28;20038;-77
2021/07/18 04:45:48;;;;;;;10.53;4.20;;;;;;;18.58;100.00;101278.69;5145127;28;20030;-77
2021/07/18 04:48:18;;;;;;;11.50;4.03;;;;;;;18.62;100.00;101280.22;5140002;28;20700;-77
2021/07/18 04:50:48;;;;;;;10.05;4.30;;;;;;;18.56;100.00;101280.59;5140047;28;20274;-78
2021/07/18 04:53:19;;;;;;;10.70;4.10;;;;;;;18.46;100.00;101275.88;5140511;28;20026;-77
2021/07/18 04:55:49;;;;;;;12.13;4.37;;;;;;;18.52;100.00;101267.59;5139890;28;20029;-77
2021/07/18 04:58:19;;;;;;;11.02;4.10;;;;;;;18.62;100.00;101274.94;5139953;28;20823;-77
2021/07/18 05:00:49;;;;;;;13.30;4.30;;;;;;;18.77;100.00;101272.25;5139976;28;20038;-77
2021/07/18 05:03:20;;;;;;;12.35;3.97;;;;;;;18.73;100.00;101271.66;5139919;28;20278;-77
2021/07/18 05:05:50;;;;;;;10.30;3.50;;;;;;;18.89;100.00;101274.19;5139808;28;20038;-77
2021/07/18 05:08:20;;;;;;;10.70;4.10;;;;;;;18.69;100.00;101281.56;5140291;28;20473;-77
2021/07/18 05:10:51;;;;;;;9.45;3.65;;;;;;;18.91;100.00;101282.88;5144526;28;20039;-77
2021/07/18 05:13:21;;;;;;;8.57;3.67;;;;;;;18.91;100.00;101292.66;5142662;28;20034;-78
2021/07/18 05:15:51;;;;;;;10.20;3.50;;;;;;;19.08;100.00;101276.63;5145002;28;20054;-77
2021/07/18 05:18:21;;;;;;;11.90;3.70;;;;;;;19.10;100.00;101280.88;5143335;28;20286;-77
2021/07/18 05:20:52;;;;;;;10.30;3.38;;;;;;;19.23;100.00;101281.88;5143730;28;20374;-77
2021/07/18 05:23:22;;;;;;;10.13;3.40;;;;;;;19.32;100.00;101278.69;5143577;28;20218;-77
2021/07/18 05:25:53;;;;;;;10.48;3.60;;;;;;;19.25;100.00;101285.28;5142420;28;20023;-77
2021/07/18 05:28:23;;;;;;;6.72;2.90;;;;;;;19.45;100.00;101279.63;5143636;28;20057;-78
2021/07/18 05:30:53;;;;;;;11.07;3.38;;;;;;;19.31;100.00;101282.25;5143344;28;20054;-77
2021/07/18 05:33:24;;;;;;;11.07;3.40;;;;;;;19.21;100.00;101286.41;5142200;28;20106;-77
2021/07/18 05:35:55;;;;;;;13.45;3.58;;;;;;;19.29;100.00;101283.31;5143925;28;20273;-77
2021/07/18 05:38:25;;;;;;;8.77;3.30;;;;;;;19.16;100.00;101284.94;5144927;28;20092;-77
2021/07/18 05:40:55;;;;;;;11.27;3.40;;;;;;;19.18;100.00;101291.91;5148123;28;20085;-78
2021/07/18 05:43:26;;;;;;;9.05;3.40;;;;;;;19.37;100.00;101287.22;5145648;28;20034;-77
2021/07/18 05:45:57;;;;;;;7.80;3.00;;;;;;;19.57;100.00;101286.84;5148803;28;20030;-77
2021/07/18 05:48:27;;;;;;;5.60;2.78;;;;;;;19.53;99.65;101277.38;5143547;28;20251;-77
2021/07/18 05:50:57;;;;;;;7.47;3.10;;;;;;;19.56;99.38;101287.81;5142883;28;20046;-78
2021/07/18 05:53:28;;;;;;;12.38;3.20;;;;;;;19.86;98.25;101285.91;5143028;28;20054;-77
2021/07/18 05:55:58;;;;;;;10.05;3.13;;;;;;;19.87;99.01;101284.97;5143196;28;20034;-77
2021/07/18 05:58:28;;;;;;;8.27;2.90;;;;;;;20.13;97.10;101286.84;5143745;28;20031;-78
2021/07/18 06:00:58;;;;;;;10.27;3.17;;;;;;;20.31;94.90;101290.97;5142033;28;20282;-77
2021/07/18 06:03:29;;;;;;;10.25;3.05;;;;;;;20.40;94.08;101290.41;5144175;28;20277;-77
2021/07/18 06:06:00;;;;;;;9.65;2.75;;;;;;;20.19;95.34;101293.56;5142778;28;20027;-77
2021/07/18 06:08:30;;;;;;;11.05;3.03;;;;;;;20.04;95.72;101287.44;5140369;28;20117;-77
2021/07/18 06:11:00;;;;;;;11.02;3.00;;;;;;;19.95;95.42;101290.63;5145442;28;20545;-77
2021/07/18 06:13:30;;;;;;;8.73;2.83;;;;;;;19.91;97.48;101296.22;5145811;28;20023;-77
2021/07/18 06:16:01;;;;;;;7.43;2.80;;;;;;;19.85;97.88;101299.25;5148050;28;20027;-77
2021/07/18 06:18:31;;;;;;;6.82;2.83;;;;;;;20.10;96.12;101295.00;5142541;28;20282;-77
2021/07/18 06:21:03;;;;;;;8.25;2.97;;;;;;;19.75;96.70;101291.03;5141206;28;20110;-78
2021/07/18 06:23:33;;;;;;;5.97;2.28;;;;;;;19.78;97.03;101303.25;5143097;28;20062;-78
2021/07/18 06:26:04;;;;;;;8.73;2.78;;;;;;;19.56;96.58;101293.09;5142936;28;20063;-77
2021/07/18 06:28:35;;;;;;;7.20;2.72;;;;;;;19.65;96.29;101303.13;5141559;28;20023;-77
2021/07/18 06:31:05;;;;;;;8.32;2.70;;;;;;;19.80;96.48;101310.16;5141865;28;20365;-77
2021/07/18 06:33:35;;;;;;;5.45;2.53;;;;;;;19.97;95.51;101312.63;5142894;28;20074;-77
2021/07/18 06:36:06;;;;;;;9.52;2.70;;;;;;;20.07;94.35;101305.81;5142029;28;20381;-77
2021/07/18 06:38:36;;;;;;;8.05;3.00;;;;;;;19.87;95.34;101316.81;5143197;28;20481;-78
2021/07/18 06:41:06;;;;;;;6.38;2.80;;;;;;;19.74;96.09;101313.19;5146765;28;20113;-77
2021/07/18 06:43:37;;;;;;;5.93;2.63;;;;;;;20.04;95.50;101321.97;5145289;28;20043;-78
2021/07/18 06:46:07;;;;;;;5.82;2.50;;;;;;;20.24;93.87;101313.59;5147481;28;20023;-77
2021/07/18 06:48:37;;;;;;;8.85;2.80;;;;;;;20.27;92.98;101316.03;5145435;28;20026;-77
2021/07/18 06:51:07;;;;;;;5.57;2.20;;;;;;;20.50;91.11;101310.09;5142460;28;20018;-77
2021/07/18 06:53:38;;;;;;;7.22;2.25;;;;;;;20.53;91.96;101314.38;5141978;28;20034;-77
2021/07/18 06:56:08;;;;;;;8.23;3.00;;;;;;;20.96;90.69;101309.69;5138268;28;20023;-77
2021/07/18 06:58:38;;;;;;;8.10;2.53;;;;;;;21.08;90.05;101308.03;5142586;28;20645;-77
2021/07/18 07:01:09;;;;;;;6.80;2.25;;;;;;;21.25;89.13;101313.88;5141241;28;20049;-77
2021/07/18 07:03:39;;;;;;;8.05;2.55;;;;;;;21.12;88.29;101321.00;5142159;28;20082;-77
2021/07/18 07:06:09;;;;;;;6.30;2.30;;;;;;;21.02;89.92;101319.03;5147287;28;20105;-77
2021/07/18 07:08:40;;;;;;;8.40;2.37;;;;;;;21.26;89.35;101315.59;5149751;28;20114;-77
2021/07/18 07:11:10;;;;;;;8.05;2.20;;;;;;;20.72;90.61;101321.88;5146465;28;20784;-77
2021/07/18 07:13:40;;;;;;;4.63;2.10;;;;;;;20.81;89.48;101323.97;5144397;28;20034;-77
2021/07/18 07:16:11;;;;;;;6.50;2.42;;;;;;;20.64;91.12;101322.50;5145651;28;20023;-77
2021/07/18 07:18:42;;;;;;;6.28;2.50;;;;;;;21.25;89.89;101326.34;5141158;28;20521;-77
2021/07/18 07:21:13;;;;;;;8.57;2.70;;;;;;;21.53;87.80;101318.16;5140618;28;20030;-77
2021/07/18 07:23:43;;;;;;;7.50;2.30;;;;;;;21.70;87.70;101315.22;5141434;28;20026;-78
2021/07/18 07:26:15;;;;;;;6.15;2.20;;;;;;;22.53;83.05;101316.31;5141936;28;20049;-77
2021/07/18 07:28:45;;;;;;;9.25;2.17;;;;;;;22.25;83.52;101313.06;5141515;28;20054;-78
2021/07/18 07:31:15;;;;;;;8.82;2.15;;;;;;;22.76;81.34;101305.66;5142463;28;20507;-78
2021/07/18 07:33:46;;;;;;;5.97;2.05;;;;;;;24.16;78.01;101292.03;5142781;28;20651;-78
2021/07/18 07:36:17;;;;;;;7.43;2.20;;;;;;;25.45;73.22;101295.41;5143849;28;20511;-78
2021/07/18 07:38:47;;;;;;;5.78;1.75;;;;;;;26.64;70.44;101282.91;5144165;28;20460;-78
2021/07/18 07:41:18;;;;;;;4.13;1.67;;;;;;;26.57;69.65;101282.66;5147276;28;20050;-78
2021/07/18 07:43:48;;;;;;;5.88;1.77;;;;;;;26.61;68.70;101283.22;5146842;28;20029;-78
2021/07/18 07:46:19;;;;;;;5.75;1.60;;;;;;;26.53;68.42;101280.38;5149370;28;20425;-78
2021/07/18 07:48:49;;;;;;;5.70;1.98;;;;;;;27.23;67.62;101266.56;5143741;28;20090;-78
2021/07/18 07:51:20;;;;;;;5.33;1.73;;;;;;;27.68;64.71;101272.97;5143269;28;20018;-78
2021/07/18 07:53:53;;;;;;;4.40;1.88;;;;;;;28.23;63.37;101263.97;5149057;28;20274;-78
2021/07/18 07:56:24;;;;;;;4.70;1.75;;;;;;;28.01;62.59;101267.06;5150354;28;20026;-78
2021/07/18 07:58:54;;;;;;;6.00;1.63;;;;;;;28.35;65.00;101264.66;5149997;28;20530;-78
2021/07/18 08:01:24;;;;;;;4.30;1.90;;;;;;;29.08;62.16;101267.94;5148922;28;20034;-78
2021/07/18 08:03:54;;;;;;;4.10;1.80;;;;;;;29.32;61.37;101262.72;5149650;28;20702;-78
2021/07/18 08:06:25;;;;;;;4.37;1.90;;;;;;;28.63;63.13;101267.13;5148026;28;20464;-79
2021/07/18 08:08:55;;;;;;;5.57;1.70;;;;;;;30.05;59.90;101259.53;5149703;28;20034;-79
2021/07/18 08:11:26;;;;;;;5.03;1.87;;;;;;;28.68;63.42;101270.22;5152665;28;20354;-78
2021/07/18 08:13:56;;;;;;;4.95;1.73;;;;;;;29.57;60.60;101270.84;5151871;28;20850;-79
2021/07/18 08:16:26;;;;;;;3.07;1.60;;;;;;;30.18;59.64;101263.44;5197696;23;20154;-77
2021/07/18 08:18:56;;;;;;;3.20;1.60;;;;;;;30.02;58.77;101254.41;5170506;28;21420;-77
2021/07/18 08:21:27;;;;;;;4.90;1.70;;;;;;;29.24;60.34;101260.81;5162505;28;20284;-80
2021/07/18 08:23:57;;;;;;;5.60;2.07;;;;;;;28.45;62.30;101258.19;5173938;28;21139;-79
2021/07/18 08:26:28;;;;;;;4.75;2.00;;;;;;;30.17;59.13;101250.13;5167524;28;20305;-79
2021/07/18 08:28:58;;;;;;;5.53;2.20;;;;;;;30.80;58.59;101241.34;5153270;28;20138;-80
2021/07/18 08:31:28;;;;;;;5.60;2.00;;;;;;;30.21;59.09;101238.84;5146476;28;20040;-80
2021/07/18 08:33:59;;;;;;;7.18;2.20;;;;;;;30.55;57.69;101246.84;5145498;28;20469;-80
2021/07/18 08:36:29;;;;;;;4.55;2.05;;;;;;;30.79;57.62;101246.91;5144518;28;20023;-80
2021/07/18 08:38:59;;;;;;;5.03;2.00;;;;;;;30.91;57.18;101244.56;5151022;28;20773;-80
2021/07/18 08:41:30;;;;;;;5.83;2.23;;;;;;;31.92;56.16;101241.22;5144651;28;20097;-78
2021/07/18 08:44:00;;;;;;;5.45;2.50;;;;;;;31.78;55.88;101248.22;5143613;28;20292;-78
2021/07/18 08:46:31;;;;;;;5.70;2.30;;;;;;;30.99;57.61;101244.56;5143070;28;20038;-78
2021/07/18 08:49:01;;;;;;;4.87;2.00;;;;;;;30.71;57.44;101236.94;5138747;28;20027;-78
2021/07/18 08:51:33;;;;;;;4.97;2.00;;;;;;;31.87;55.92;101240.91;5138128;28;20390;-78
2021/07/18 08:54:04;;;;;;;7.32;2.10;;;;;;;32.27;55.69;101241.63;5143589;28;20022;-77
2021/07/18 08:56:36;;;;;;;5.15;2.08;;;;;;;31.04;58.08;101244.88;5140105;28;20362;-77
2021/07/18 08:59:07;;;;;;;6.55;2.15;;;;;;;32.16;56.16;101249.22;5140017;28;20031;-77
2021/07/18 09:01:41;;;;;;;5.97;2.40;;;;;;;32.10;55.39;101241.81;5139807;28;20046;-77
2021/07/18 09:04:11;;;;;;;7.68;2.90;;;;;;;31.92;54.47;101236.69;5145739;28;20026;-79
2021/07/18 09:06:48;;;;;;;7.10;2.77;;;;;;;29.93;57.69;101240.03;5149472;28;20081;-80
2021/07/18 09:09:21;;;;;;;5.82;2.13;;;;;;;31.50;56.00;101249.59;5147087;28;20278;-79
2021/07/18 09:11:57;;;;;;;5.43;2.17;;;;;;;30.68;57.98;101237.28;5146720;28;20030;-79
2021/07/18 09:14:36;;;;;;;5.35;2.33;;;;;;;30.24;60.30;101249.28;5143876;28;20054;-79
2021/07/18 09:17:12;;;;;;;5.78;2.10;;;;;;;29.99;60.09;101243.94;5143264;28;20164;-80
2021/07/18 09:19:44;;;;;;;6.40;2.53;;;;;;;29.31;60.99;101240.34;5146329;28;20031;-79
2021/07/18 09:22:19;;;;;;;6.45;2.40;;;;;;;29.82;59.80;101242.19;5143500;28;20081;-78
2021/07/18 09:24:54;;;;;;;;;;;;;;;30.49;58.61;101245.66;5146128;28;20080;-80
2021/07/18 09:27:34;;;;;;;6.45;2.55;;;;;;;29.50;59.84;101244.69;5143366;28;19918;-80
2021/07/18 09:30:14;;;;;;;7.63;2.75;;;;;;;30.75;57.49;101232.06;5143969;28;20027;-79
2021/07/18 09:32:46;;;;;;;7.00;2.60;;;;;;;30.39;58.54;101236.88;5141657;28;20030;-80
2021/07/18 09:35:18;;;;;;;7.03;2.63;;;;;;;29.91;58.51;101239.34;5144600;28;20500;-80
2021/07/18 09:37:50;;;;;;;6.85;2.30;;;;;;;30.94;56.98;101236.13;5146179;28;20489;-79
2021/07/18 09:40:23;;;;;;;5.50;1.80;;;;;;;31.11;57.26;101235.16;5140719;28;20031;-79
2021/07/18 09:43:01;;;;;;;2.88;1.60;;;;;;;30.05;59.49;101244.16;5148513;28;20081;-80
2021/07/18 09:45:32;;;;;;;4.40;1.90;;;;;;;30.32;59.01;101233.16;5155524;28;20019;-79
2021/07/18 09:48:09;;;;;;;5.18;2.17;;;;;;;30.54;57.75;101234.34;5145213;28;20500;-79
2021/07/18 09:50:45;;;;;;;4.93;2.00;;;;;;;30.96;56.79;101230.53;5139397;28;20113;-78
2021/07/18 09:53:21;;;;;;;6.80;2.58;;;;;;;29.86;60.77;101235.44;5145069;28;20485;-80
2021/07/18 09:56:01;;;;;;;6.13;2.10;;;;;;;29.42;62.06;101231.16;5144163;28;20651;-79
2021/07/18 09:58:33;;;;;;;6.82;2.38;;;;;;;29.92;61.54;101224.03;5140402;28;20221;-78
2021/07/18 10:01:06;;;;;;;5.88;2.50;;;;;;;28.99;62.52;101228.47;5146477;28;20421;-78
2021/07/18 10:03:45;;;;;;;7.78;2.70;;;;;;;28.71;63.54;101221.47;5148539;28;20065;-78
2021/07/18 10:06:18;;;;;;;4.18;2.05;;;;;;;30.04;59.51;101226.31;5155335;28;20034;-78
2021/07/18 10:08:54;;;;;;;6.35;2.40;;;;;;;29.44;60.15;101224.56;5155412;28;20764;-76
2021/07/18 10:11:28;;;;;;;5.82;2.17;;;;;;;30.29;58.27;101219.13;5141223;28;20058;-78
2021/07/18 10:14:05;;;;;;;6.30;2.47;;;;;;;29.84;59.96;101221.28;5160667;28;20081;-78
2021/07/18 10:16:35;;;;;;;4.30;2.20;;;;;;;30.79;58.54;101212.63;5158170;28;20042;-76
2021/07/18 10:19:05;;;;;;;4.97;2.17;;;;;;;29.55;59.20;101201.97;5159150;28;20311;-78
2021/07/18 10:21:37;;;;;;;5.10;2.22;;;;;;;28.83;62.59;101210.31;5162696;28;20289;-79
2021/07/18 10:24:08;;;;;;;6.40;2.90;;;;;;;27.75;66.65;101201.53;5159007;28;20037;-76
2021/07/18 10:26:39;;;;;;;7.35;2.75;;;;;;;27.71;67.35;101205.53;5156041;28;20039;-76
2021/07/18 10:29:11;;;;;;;5.28;2.78;;;;;;;28.17;65.68;101197.34;5155492;28;20085;-79
2021/07/18 10:31:49;;;;;;;5.55;2.78;;;;;;;27.83;66.77;101195.44;5155392;28;20484;-79
2021/07/18 10:34:28;;;;;;;7.13;3.00;;;;;;;27.31;66.95;101202.22;5155100;28;20049;-76
2021/07/18 10:36:58;;;;;;;5.15;2.72;;;;;;;27.32;67.56;101195.91;5156999;28;20041;-76
2021/07/18 10:39:31;;;;;;;7.22;3.10;;;;;;;27.03;68.38;101192.41;5152066;28;20795;-77
2021/07/18 10:42:07;;;;;;;5.75;2.85;;;;;;;26.92;68.29;101195.22;5152794;28;20081;-78
2021/07/18 10:44:37;;;;;;;;;;;;;;;27.01;68.38;101197.06;5158051;28;20034;-78
2021/07/18 10:47:07;;;;;;;4.93;2.70;;;;;;;27.19;67.29;101200.72;5155600;28;19922;-79
2021/07/18 10:49:55;;;;;;;5.60;2.83;;;;;;;26.85;68.96;101196.81;5151858;28;20034;-77
2021/07/18 10:52:31;;;;;;;4.47;2.72;;;;;;;27.09;67.62;101194.50;5150032;28;20031;-78
2021/07/18 10:55:21;;;;;;;5.55;2.70;;;;;;;27.29;67.17;101190.78;5151908;28;20609;-78
2021/07/18 10:57:52;;;;;;;4.97;2.78;;;;;;;26.81;67.96;101195.41;5150316;28;20547;-77
2021/07/18 11:00:24;;;;;;;6.50;2.80;;;;;;;26.46;67.74;101196.06;5152698;28;20045;-76
2021/07/18 11:03:10;;;;;;;4.45;2.35;;;;;;;26.64;69.64;101202.44;5151492;28;20063;-79
2021/07/18 11:05:45;;;;;;;5.82;2.67;;;;;;;26.53;68.77;101197.25;5147694;28;20027;-79
2021/07/18 11:08:15;;;;;;;6.30;2.55;;;;;;;25.78;69.38;101204.91;5155084;28;20030;-79
2021/07/18 11:10:53;;;;;;;8.30;2.60;;;;;;;26.54;69.30;101198.94;5156182;28;20038;-77
2021/07/18 11:13:24;;;;;;;5.10;2.58;;;;;;;26.59;69.47;101202.03;5152378;28;20030;-79
2021/07/18 11:15:54;;;;;;;5.43;2.63;;;;;;;26.11;68.70;101193.03;5156218;28;20034;-78
2021/07/18 11:18:36;;;;;;;6.72;2.70;;;;;;;26.24;69.51;101199.00;5149110;28;20019;-76
2021/07/18 11:21:07;;;;;;;6.00;2.55;;;;;;;26.15;70.71;101189.13;5151034;28;20082;-79
2021/07/18 11:23:47;;;;;;;5.35;2.50;;;;;;;26.16;68.74;101190.81;5154609;28;20038;-79
2021/07/18 11:26:18;;;;;;;6.50;2.83;;;;;;;26.28;69.85;101187.00;5148414;28;20039;-77
2021/07/18 11:29:01;;;;;;;5.40;2.38;;;;;;;26.45;70.26;101180.94;5151108;28;20054;-76
2021/07/18 11:31:37;;;;;;;7.47;3.00;;;;;;;26.30;69.19;101185.03;5150938;28;20424;-77
2021/07/18 11:34:10;;;;;;;6.75;2.60;;;;;;;26.09;68.81;101186.97;5151480;28;20045;-77
2021/07/18 11:36:40;;;;;;;6.05;2.72;;;;;;;26.37;68.82;101188.88;5149585;28;20034;-78
2021/07/18 11:39:19;;;;;;;4.77;2.60;;;;;;;25.98;68.28;101171.88;5157942;28;20030;-78